Clayworks, Iowa
Current Conditions -  °F | °C
As of 8:35 AM on Friday 28 Nov 2014 (Local Time) from KFOD Reporting Station
Clear Clear  
Wind Chill:   Ceiling: Unl
Heat Index: 18°   Visibility: 10mi
Dew Point: 12°   Wind: 6mph
Humidity: 79%   Direction: 120°ESE
Pressure: 29.93"   Gusts: NA
Location:  42.5075°N, 94.2531°W
Report Text: KFOD 281435Z AUTO 12005KT 10SM CLR M08/M11 A2993 RMK AO1
Loading
Personal Weather Stations






























Interactive Weather Map New forecast layout! Learn more

10-Day Weather Forecast

Advertisements
Track Severe Weather on mobile